sensor_id;sensor_type;location;lat;lon;timestamp;P1;durP1;ratioP1;P2;durP2;ratioP2
26038;SDS011;13815;52.374;4.882;2023-01-08T00:02:15;0.10;;;0.10;;
26038;SDS011;13815;52.374;4.882;2023-01-08T00:04:41;0.20;;;0.20;;
26038;SDS011;13815;52.374;4.882;2023-01-08T00:07:06;4.20;;;0.47;;
26038;SDS011;13815;52.374;4.882;2023-01-08T00:09:31;0.20;;;0.20;;
26038;SDS011;13815;52.374;4.882;2023-01-08T00:11:57;0.98;;;0.28;;
26038;SDS011;13815;52.374;4.882;2023-01-08T00:14:22;4.50;;;0.35;;
26038;SDS011;13815;52.374;4.882;2023-01-08T00:16:47;9.85;;;1.17;;
26038;SDS011;13815;52.374;4.882;2023-01-08T00:19:13;0.77;;;0.70;;
26038;SDS011;13815;52.374;4.882;2023-01-08T00:21:38;0.40;;;0.40;;
26038;SDS011;13815;52.374;4.882;2023-01-08T00:24:04;4.60;;;0.47;;
26038;SDS011;13815;52.374;4.882;2023-01-08T00:26:30;0.30;;;0.30;;
26038;SDS011;13815;52.374;4.882;2023-01-08T00:28:55;0.30;;;0.30;;
26038;SDS011;13815;52.374;4.882;2023-01-08T00:31:20;2.63;;;0.40;;
26038;SDS011;13815;52.374;4.882;2023-01-08T00:33:46;17.75;;;1.42;;
26038;SDS011;13815;52.374;4.882;2023-01-08T00:36:13;0.10;;;0.10;;
26038;SDS011;13815;52.374;4.882;2023-01-08T00:38:40;4.15;;;0.68;;
26038;SDS011;13815;52.374;4.882;2023-01-08T00:41:06;0.10;;;0.10;;
26038;SDS011;13815;52.374;4.882;2023-01-08T00:43:31;1.08;;;1.00;;
26038;SDS011;13815;52.374;4.882;2023-01-08T00:45:57;3.67;;;0.57;;
26038;SDS011;13815;52.374;4.882;2023-01-08T00:48:22;4.50;;;0.60;;
26038;SDS011;13815;52.374;4.882;2023-01-08T00:50:49;4.35;;;0.55;;
26038;SDS011;13815;52.374;4.882;2023-01-08T00:53:14;4.38;;;0.40;;
26038;SDS011;13815;52.374;4.882;2023-01-08T00:55:40;0.30;;;0.30;;
26038;SDS011;13815;52.374;4.882;2023-01-08T00:58:05;0.10;;;0.10;;
26038;SDS011;13815;52.374;4.882;2023-01-08T01:00:31;6.82;;;1.00;;
26038;SDS011;13815;52.374;4.882;2023-01-08T01:02:56;3.40;;;0.47;;
26038;SDS011;13815;52.374;4.882;2023-01-08T01:05:22;4.78;;;0.55;;
26038;SDS011;13815;52.374;4.882;2023-01-08T01:07:50;9.23;;;0.80;;
26038;SDS011;13815;52.374;4.882;2023-01-08T01:10:16;0.20;;;0.20;;
26038;SDS011;13815;52.374;4.882;2023-01-08T01:12:42;0.30;;;0.30;;
26038;SDS011;13815;52.374;4.882;2023-01-08T01:15:09;0.17;;;0.17;;
26038;SDS011;13815;52.374;4.882;2023-01-08T01:17:39;0.15;;;0.15;;
26038;SDS011;13815;52.374;4.882;2023-01-08T01:20:07;8.65;;;0.80;;
26038;SDS011;13815;52.374;4.882;2023-01-08T01:22:33;0.25;;;0.25;;
26038;SDS011;13815;52.374;4.882;2023-01-08T01:25:02;0.05;;;0.05;;
26038;SDS011;13815;52.374;4.882;2023-01-08T01:27:28;7.13;;;0.85;;
26038;SDS011;13815;52.374;4.882;2023-01-08T01:29:53;0.32;;;0.32;;
26038;SDS011;13815;52.374;4.882;2023-01-08T01:32:18;0.10;;;0.10;;
26038;SDS011;13815;52.374;4.882;2023-01-08T01:34:44;9.07;;;0.80;;
26038;SDS011;13815;52.374;4.882;2023-01-08T01:37:12;0.15;;;0.15;;
26038;SDS011;13815;52.374;4.882;2023-01-08T01:39:39;2.60;;;0.73;;
26038;SDS011;13815;52.374;4.882;2023-01-08T01:42:10;0.43;;;0.38;;
26038;SDS011;13815;52.374;4.882;2023-01-08T01:44:57;7.68;;;0.73;;
26038;SDS011;13815;52.374;4.882;2023-01-08T01:52:20;0.13;;;0.10;;
26038;SDS011;13815;52.374;4.882;2023-01-08T01:54:47;4.57;;;0.63;;
26038;SDS011;13815;52.374;4.882;2023-01-08T01:57:13;0.05;;;0.00;;
26038;SDS011;13815;52.374;4.882;2023-01-08T01:59:39;0.20;;;0.10;;
26038;SDS011;13815;52.374;4.882;2023-01-08T02:02:04;7.95;;;0.82;;
26038;SDS011;13815;52.374;4.882;2023-01-08T02:04:30;8.57;;;0.90;;
26038;SDS011;13815;52.374;4.882;2023-01-08T02:06:59;0.10;;;0.08;;
26038;SDS011;13815;52.374;4.882;2023-01-08T02:09:31;0.10;;;0.05;;
26038;SDS011;13815;52.374;4.882;2023-01-08T02:12:06;0.03;;;0.00;;
26038;SDS011;13815;52.374;4.882;2023-01-08T02:17:23;0.30;;;0.22;;
26038;SDS011;13815;52.374;4.882;2023-01-08T02:24:55;4.20;;;0.25;;
26038;SDS011;13815;52.374;4.882;2023-01-08T02:27:33;0.40;;;0.30;;
26038;SDS011;13815;52.374;4.882;2023-01-08T02:29:59;0.10;;;0.00;;
26038;SDS011;13815;52.374;4.882;2023-01-08T02:32:26;0.03;;;0.00;;
26038;SDS011;13815;52.374;4.882;2023-01-08T02:34:53;0.47;;;0.35;;
26038;SDS011;13815;52.374;4.882;2023-01-08T02:37:18;4.65;;;0.30;;
26038;SDS011;13815;52.374;4.882;2023-01-08T02:39:54;3.58;;;0.35;;
26038;SDS011;13815;52.374;4.882;2023-01-08T02:42:27;5.25;;;0.55;;
26038;SDS011;13815;52.374;4.882;2023-01-08T02:45:12;0.22;;;0.13;;
26038;SDS011;13815;52.374;4.882;2023-01-08T02:48:01;0.52;;;0.40;;
26038;SDS011;13815;52.374;4.882;2023-01-08T02:50:36;0.47;;;0.38;;
26038;SDS011;13815;52.374;4.882;2023-01-08T02:55:44;4.65;;;0.45;;
26038;SDS011;13815;52.374;4.882;2023-01-08T02:58:12;9.63;;;0.73;;
26038;SDS011;13815;52.374;4.882;2023-01-08T03:00:38;3.53;;;0.43;;
26038;SDS011;13815;52.374;4.882;2023-01-08T03:03:26;0.38;;;0.25;;
26038;SDS011;13815;52.374;4.882;2023-01-08T03:05:52;0.20;;;0.10;;
26038;SDS011;13815;52.374;4.882;2023-01-08T03:08:29;9.52;;;0.93;;
26038;SDS011;13815;52.374;4.882;2023-01-08T03:11:04;0.52;;;0.47;;
26038;SDS011;13815;52.374;4.882;2023-01-08T03:13:50;8.75;;;0.90;;
26038;SDS011;13815;52.374;4.882;2023-01-08T03:16:30;4.57;;;0.45;;
26038;SDS011;13815;52.374;4.882;2023-01-08T03:19:00;4.57;;;0.45;;
26038;SDS011;13815;52.374;4.882;2023-01-08T03:21:41;5.85;;;0.50;;
26038;SDS011;13815;52.374;4.882;2023-01-08T03:24:07;4.28;;;0.32;;
26038;SDS011;13815;52.374;4.882;2023-01-08T03:26:36;1.35;;;0.35;;
26038;SDS011;13815;52.374;4.882;2023-01-08T03:29:03;4.22;;;0.43;;
26038;SDS011;13815;52.374;4.882;2023-01-08T03:31:29;0.00;;;0.00;;
26038;SDS011;13815;52.374;4.882;2023-01-08T03:33:58;4.47;;;0.40;;
26038;SDS011;13815;52.374;4.882;2023-01-08T03:36:25;0.00;;;0.00;;
26038;SDS011;13815;52.374;4.882;2023-01-08T03:38:55;0.00;;;0.00;;
26038;SDS011;13815;52.374;4.882;2023-01-08T03:41:25;5.07;;;0.45;;
26038;SDS011;13815;52.374;4.882;2023-01-08T03:43:53;0.20;;;0.13;;
26038;SDS011;13815;52.374;4.882;2023-01-08T03:46:21;0.75;;;0.75;;
26038;SDS011;13815;52.374;4.882;2023-01-08T03:49:08;0.20;;;0.20;;
26038;SDS011;13815;52.374;4.882;2023-01-08T03:51:41;4.03;;;0.38;;
26038;SDS011;13815;52.374;4.882;2023-01-08T03:54:07;0.25;;;0.25;;
26038;SDS011;13815;52.374;4.882;2023-01-08T03:56:34;2.78;;;0.30;;
26038;SDS011;13815;52.374;4.882;2023-01-08T03:59:00;7.10;;;0.75;;
26038;SDS011;13815;52.374;4.882;2023-01-08T04:01:25;0.08;;;0.03;;
26038;SDS011;13815;52.374;4.882;2023-01-08T04:03:50;7.57;;;0.68;;
26038;SDS011;13815;52.374;4.882;2023-01-08T04:06:16;8.43;;;0.90;;
26038;SDS011;13815;52.374;4.882;2023-01-08T04:08:41;0.00;;;0.00;;
26038;SDS011;13815;52.374;4.882;2023-01-08T04:11:06;4.38;;;0.63;;
26038;SDS011;13815;52.374;4.882;2023-01-08T04:13:32;8.70;;;0.80;;
26038;SDS011;13815;52.374;4.882;2023-01-08T04:15:57;0.10;;;0.10;;
26038;SDS011;13815;52.374;4.882;2023-01-08T04:18:22;4.22;;;0.35;;
26038;SDS011;13815;52.374;4.882;2023-01-08T04:20:48;3.15;;;0.43;;
26038;SDS011;13815;52.374;4.882;2023-01-08T04:23:13;0.20;;;0.20;;
26038;SDS011;13815;52.374;4.882;2023-01-08T04:25:39;4.43;;;0.40;;
26038;SDS011;13815;52.374;4.882;2023-01-08T04:28:07;8.45;;;0.65;;
26038;SDS011;13815;52.374;4.882;2023-01-08T04:30:32;0.35;;;0.35;;
26038;SDS011;13815;52.374;4.882;2023-01-08T04:32:57;4.15;;;0.38;;
26038;SDS011;13815;52.374;4.882;2023-01-08T04:35:23;8.20;;;0.65;;
26038;SDS011;13815;52.374;4.882;2023-01-08T04:37:48;0.20;;;0.20;;
26038;SDS011;13815;52.374;4.882;2023-01-08T04:40:14;0.20;;;0.20;;
26038;SDS011;13815;52.374;4.882;2023-01-08T04:42:39;5.63;;;1.40;;
26038;SDS011;13815;52.374;4.882;2023-01-08T04:45:05;0.20;;;0.20;;
26038;SDS011;13815;52.374;4.882;2023-01-08T04:47:31;0.22;;;0.20;;
26038;SDS011;13815;52.374;4.882;2023-01-08T04:49:56;11.48;;;0.95;;
26038;SDS011;13815;52.374;4.882;2023-01-08T04:52:22;0.15;;;0.15;;
26038;SDS011;13815;52.374;4.882;2023-01-08T04:54:47;7.25;;;0.55;;
26038;SDS011;13815;52.374;4.882;2023-01-08T04:57:12;0.00;;;0.00;;
26038;SDS011;13815;52.374;4.882;2023-01-08T04:59:38;0.30;;;0.28;;
26038;SDS011;13815;52.374;4.882;2023-01-08T05:02:03;8.82;;;0.75;;
26038;SDS011;13815;52.374;4.882;2023-01-08T05:04:29;0.20;;;0.10;;
26038;SDS011;13815;52.374;4.882;2023-01-08T05:06:54;0.03;;;0.03;;
26038;SDS011;13815;52.374;4.882;2023-01-08T05:09:19;10.50;;;0.98;;
26038;SDS011;13815;52.374;4.882;2023-01-08T05:11:45;0.00;;;0.00;;
26038;SDS011;13815;52.374;4.882;2023-01-08T05:14:10;0.03;;;0.00;;
26038;SDS011;13815;52.374;4.882;2023-01-08T05:16:36;6.18;;;0.70;;
26038;SDS011;13815;52.374;4.882;2023-01-08T05:19:01;0.20;;;0.10;;
26038;SDS011;13815;52.374;4.882;2023-01-08T05:21:26;0.10;;;0.10;;
26038;SDS011;13815;52.374;4.882;2023-01-08T05:23:52;7.68;;;1.08;;
26038;SDS011;13815;52.374;4.882;2023-01-08T05:26:17;0.17;;;0.10;;
26038;SDS011;13815;52.374;4.882;2023-01-08T05:28:43;0.47;;;0.38;;
26038;SDS011;13815;52.374;4.882;2023-01-08T05:31:08;8.48;;;0.98;;
26038;SDS011;13815;52.374;4.882;2023-01-08T05:33:35;0.10;;;0.03;;
26038;SDS011;13815;52.374;4.882;2023-01-08T05:36:03;5.00;;;0.45;;
26038;SDS011;13815;52.374;4.882;2023-01-08T05:38:29;5.43;;;0.85;;
26038;SDS011;13815;52.374;4.882;2023-01-08T05:40:54;0.32;;;0.28;;
26038;SDS011;13815;52.374;4.882;2023-01-08T05:43:20;4.75;;;0.40;;
26038;SDS011;13815;52.374;4.882;2023-01-08T05:45:45;0.70;;;0.57;;
26038;SDS011;13815;52.374;4.882;2023-01-08T05:48:11;0.75;;;0.57;;
26038;SDS011;13815;52.374;4.882;2023-01-08T05:50:36;4.97;;;0.57;;
26038;SDS011;13815;52.374;4.882;2023-01-08T05:53:04;10.68;;;2.17;;
26038;SDS011;13815;52.374;4.882;2023-01-08T05:55:31;0.30;;;0.20;;
26038;SDS011;13815;52.374;4.882;2023-01-08T05:57:59;9.45;;;0.65;;
26038;SDS011;13815;52.374;4.882;2023-01-08T06:00:28;0.60;;;0.45;;
26038;SDS011;13815;52.374;4.882;2023-01-08T06:02:54;0.22;;;0.15;;
26038;SDS011;13815;52.374;4.882;2023-01-08T06:05:19;12.32;;;1.23;;
26038;SDS011;13815;52.374;4.882;2023-01-08T06:07:44;0.22;;;0.20;;
26038;SDS011;13815;52.374;4.882;2023-01-08T06:10:10;3.60;;;0.55;;
26038;SDS011;13815;52.374;4.882;2023-01-08T06:12:35;5.38;;;0.80;;
26038;SDS011;13815;52.374;4.882;2023-01-08T06:15:01;0.90;;;0.65;;
26038;SDS011;13815;52.374;4.882;2023-01-08T06:17:27;4.57;;;0.55;;
26038;SDS011;13815;52.374;4.882;2023-01-08T06:19:52;0.32;;;0.20;;
26038;SDS011;13815;52.374;4.882;2023-01-08T06:22:18;4.00;;;0.50;;
26038;SDS011;13815;52.374;4.882;2023-01-08T06:24:43;4.95;;;0.55;;
26038;SDS011;13815;52.374;4.882;2023-01-08T06:27:08;4.53;;;0.50;;
26038;SDS011;13815;52.374;4.882;2023-01-08T06:29:34;0.43;;;0.28;;
26038;SDS011;13815;52.374;4.882;2023-01-08T06:31:59;6.30;;;0.88;;
26038;SDS011;13815;52.374;4.882;2023-01-08T06:34:24;4.65;;;0.43;;
26038;SDS011;13815;52.374;4.882;2023-01-08T06:36:50;0.50;;;0.30;;
26038;SDS011;13815;52.374;4.882;2023-01-08T06:39:15;9.73;;;1.15;;
26038;SDS011;13815;52.374;4.882;2023-01-08T06:41:41;5.20;;;0.43;;
26038;SDS011;13815;52.374;4.882;2023-01-08T06:44:07;0.20;;;0.10;;
26038;SDS011;13815;52.374;4.882;2023-01-08T06:46:33;9.77;;;1.13;;
26038;SDS011;13815;52.374;4.882;2023-01-08T06:49:03;4.85;;;0.52;;
26038;SDS011;13815;52.374;4.882;2023-01-08T06:51:29;0.35;;;0.20;;
26038;SDS011;13815;52.374;4.882;2023-01-08T06:53:54;1.13;;;0.70;;
26038;SDS011;13815;52.374;4.882;2023-01-08T06:56:20;5.95;;;1.60;;
26038;SDS011;13815;52.374;4.882;2023-01-08T06:58:45;0.40;;;0.22;;
26038;SDS011;13815;52.374;4.882;2023-01-08T07:01:12;0.85;;;0.50;;
26038;SDS011;13815;52.374;4.882;2023-01-08T07:03:38;0.30;;;0.15;;
26038;SDS011;13815;52.374;4.882;2023-01-08T07:06:04;6.30;;;0.55;;
26038;SDS011;13815;52.374;4.882;2023-01-08T07:08:29;0.98;;;0.60;;
26038;SDS011;13815;52.374;4.882;2023-01-08T07:10:55;0.43;;;0.25;;
26038;SDS011;13815;52.374;4.882;2023-01-08T07:13:20;4.35;;;0.73;;
26038;SDS011;13815;52.374;4.882;2023-01-08T07:15:47;3.45;;;0.70;;
26038;SDS011;13815;52.374;4.882;2023-01-08T07:18:13;1.38;;;0.68;;
26038;SDS011;13815;52.374;4.882;2023-01-08T07:20:38;2.45;;;0.52;;
26038;SDS011;13815;52.374;4.882;2023-01-08T07:23:04;5.28;;;0.88;;
26038;SDS011;13815;52.374;4.882;2023-01-08T07:25:31;4.35;;;0.55;;
26038;SDS011;13815;52.374;4.882;2023-01-08T07:27:57;5.47;;;0.52;;
26038;SDS011;13815;52.374;4.882;2023-01-08T07:30:23;6.18;;;0.57;;
26038;SDS011;13815;52.374;4.882;2023-01-08T07:32:48;0.30;;;0.10;;
26038;SDS011;13815;52.374;4.882;2023-01-08T07:35:14;7.43;;;0.82;;
26038;SDS011;13815;52.374;4.882;2023-01-08T07:37:39;9.82;;;2.10;;
26038;SDS011;13815;52.374;4.882;2023-01-08T07:40:06;0.73;;;0.35;;
26038;SDS011;13815;52.374;4.882;2023-01-08T07:42:32;6.40;;;0.88;;
26038;SDS011;13815;52.374;4.882;2023-01-08T07:44:57;5.78;;;0.77;;
26038;SDS011;13815;52.374;4.882;2023-01-08T07:47:23;4.10;;;0.43;;
26038;SDS011;13815;52.374;4.882;2023-01-08T07:49:48;5.20;;;0.35;;
26038;SDS011;13815;52.374;4.882;2023-01-08T07:52:14;0.30;;;0.10;;
26038;SDS011;13815;52.374;4.882;2023-01-08T07:54:39;4.55;;;0.63;;
26038;SDS011;13815;52.374;4.882;2023-01-08T07:57:04;1.08;;;0.52;;
26038;SDS011;13815;52.374;4.882;2023-01-08T07:59:30;1.35;;;0.82;;
26038;SDS011;13815;52.374;4.882;2023-01-08T08:01:55;4.93;;;0.55;;
26038;SDS011;13815;52.374;4.882;2023-01-08T08:04:20;0.20;;;0.10;;
26038;SDS011;13815;52.374;4.882;2023-01-08T08:06:46;0.40;;;0.20;;
26038;SDS011;13815;52.374;4.882;2023-01-08T08:09:11;4.57;;;0.82;;
26038;SDS011;13815;52.374;4.882;2023-01-08T08:11:36;4.18;;;0.30;;
26038;SDS011;13815;52.374;4.882;2023-01-08T08:14:02;1.15;;;0.50;;
26038;SDS011;13815;52.374;4.882;2023-01-08T08:16:28;8.35;;;0.95;;
26038;SDS011;13815;52.374;4.882;2023-01-08T08:18:54;1.13;;;0.15;;
26038;SDS011;13815;52.374;4.882;2023-01-08T08:21:22;0.20;;;0.10;;
26038;SDS011;13815;52.374;4.882;2023-01-08T08:23:47;12.38;;;1.25;;
26038;SDS011;13815;52.374;4.882;2023-01-08T08:26:13;0.30;;;0.15;;
26038;SDS011;13815;52.374;4.882;2023-01-08T08:28:38;5.53;;;1.05;;
26038;SDS011;13815;52.374;4.882;2023-01-08T08:31:03;10.95;;;0.90;;
26038;SDS011;13815;52.374;4.882;2023-01-08T08:33:29;5.00;;;0.65;;
26038;SDS011;13815;52.374;4.882;2023-01-08T08:35:54;0.10;;;0.00;;
26038;SDS011;13815;52.374;4.882;2023-01-08T08:38:22;4.50;;;1.05;;
26038;SDS011;13815;52.374;4.882;2023-01-08T08:40:49;1.20;;;0.65;;
26038;SDS011;13815;52.374;4.882;2023-01-08T08:43:14;6.65;;;0.70;;
26038;SDS011;13815;52.374;4.882;2023-01-08T08:45:40;0.13;;;0.05;;
26038;SDS011;13815;52.374;4.882;2023-01-08T08:48:06;0.80;;;0.43;;
26038;SDS011;13815;52.374;4.882;2023-01-08T08:50:31;0.50;;;0.20;;
26038;SDS011;13815;52.374;4.882;2023-01-08T08:52:57;0.65;;;0.35;;
26038;SDS011;13815;52.374;4.882;2023-01-08T08:55:26;0.45;;;0.22;;
26038;SDS011;13815;52.374;4.882;2023-01-08T08:57:52;16.60;;;1.10;;
26038;SDS011;13815;52.374;4.882;2023-01-08T09:00:18;5.70;;;0.57;;
26038;SDS011;13815;52.374;4.882;2023-01-08T09:02:43;1.60;;;0.55;;
26038;SDS011;13815;52.374;4.882;2023-01-08T09:05:09;12.07;;;0.85;;
26038;SDS011;13815;52.374;4.882;2023-01-08T09:07:34;0.32;;;0.10;;
26038;SDS011;13815;52.374;4.882;2023-01-08T09:10:00;5.00;;;1.60;;
26038;SDS011;13815;52.374;4.882;2023-01-08T09:12:25;7.95;;;0.70;;
26038;SDS011;13815;52.374;4.882;2023-01-08T09:14:50;6.65;;;0.68;;
26038;SDS011;13815;52.374;4.882;2023-01-08T09:17:17;1.52;;;0.50;;
26038;SDS011;13815;52.374;4.882;2023-01-08T09:19:45;6.28;;;0.55;;
26038;SDS011;13815;52.374;4.882;2023-01-08T09:22:10;0.80;;;0.30;;
26038;SDS011;13815;52.374;4.882;2023-01-08T09:24:35;2.70;;;0.47;;
26038;SDS011;13815;52.374;4.882;2023-01-08T09:27:01;1.02;;;0.43;;
26038;SDS011;13815;52.374;4.882;2023-01-08T09:29:26;6.22;;;0.52;;
26038;SDS011;13815;52.374;4.882;2023-01-08T09:31:51;3.10;;;0.77;;
26038;SDS011;13815;52.374;4.882;2023-01-08T09:34:17;0.10;;;0.03;;
26038;SDS011;13815;52.374;4.882;2023-01-08T09:36:42;4.55;;;0.47;;
26038;SDS011;13815;52.374;4.882;2023-01-08T09:39:08;11.63;;;1.10;;
26038;SDS011;13815;52.374;4.882;2023-01-08T09:41:34;0.47;;;0.10;;
26038;SDS011;13815;52.374;4.882;2023-01-08T09:44:03;6.10;;;0.68;;
26038;SDS011;13815;52.374;4.882;2023-01-08T09:46:30;12.45;;;1.30;;
26038;SDS011;13815;52.374;4.882;2023-01-08T09:48:56;3.95;;;0.88;;
26038;SDS011;13815;52.374;4.882;2023-01-08T09:51:26;1.42;;;0.55;;
26038;SDS011;13815;52.374;4.882;2023-01-08T09:53:55;1.70;;;0.50;;
26038;SDS011;13815;52.374;4.882;2023-01-08T09:56:21;6.60;;;0.57;;
26038;SDS011;13815;52.374;4.882;2023-01-08T09:58:50;7.07;;;0.70;;
26038;SDS011;13815;52.374;4.882;2023-01-08T10:01:21;2.53;;;0.80;;
26038;SDS011;13815;52.374;4.882;2023-01-08T10:06:52;7.90;;;1.02;;
26038;SDS011;13815;52.374;4.882;2023-01-08T10:09:25;16.02;;;1.17;;
26038;SDS011;13815;52.374;4.882;2023-01-08T10:11:51;1.40;;;0.50;;
26038;SDS011;13815;52.374;4.882;2023-01-08T10:16:50;0.85;;;0.30;;
26038;SDS011;13815;52.374;4.882;2023-01-08T10:19:20;1.50;;;0.57;;
26038;SDS011;13815;52.374;4.882;2023-01-08T10:21:46;10.38;;;0.75;;
26038;SDS011;13815;52.374;4.882;2023-01-08T10:24:12;7.35;;;0.93;;
26038;SDS011;13815;52.374;4.882;2023-01-08T10:26:37;2.50;;;0.98;;
26038;SDS011;13815;52.374;4.882;2023-01-08T10:29:13;12.45;;;0.93;;
26038;SDS011;13815;52.374;4.882;2023-01-08T10:31:50;0.93;;;0.35;;
26038;SDS011;13815;52.374;4.882;2023-01-08T10:34:23;5.07;;;1.65;;
26038;SDS011;13815;52.374;4.882;2023-01-08T10:36:50;1.55;;;0.55;;
26038;SDS011;13815;52.374;4.882;2023-01-08T10:39:20;8.02;;;1.35;;
26038;SDS011;13815;52.374;4.882;2023-01-08T10:41:55;5.22;;;0.60;;
26038;SDS011;13815;52.374;4.882;2023-01-08T10:44:23;11.13;;;1.10;;
26038;SDS011;13815;52.374;4.882;2023-01-08T10:46:49;1.70;;;0.70;;
26038;SDS011;13815;52.374;4.882;2023-01-08T10:49:20;2.55;;;0.93;;
26038;SDS011;13815;52.374;4.882;2023-01-08T10:51:52;2.10;;;0.88;;
26038;SDS011;13815;52.374;4.882;2023-01-08T10:54:39;7.68;;;1.10;;
26038;SDS011;13815;52.374;4.882;2023-01-08T10:57:24;1.40;;;0.60;;
26038;SDS011;13815;52.374;4.882;2023-01-08T10:59:53;16.67;;;1.25;;
26038;SDS011;13815;52.374;4.882;2023-01-08T11:04:56;2.28;;;0.93;;
26038;SDS011;13815;52.374;4.882;2023-01-08T11:07:22;2.47;;;0.82;;
26038;SDS011;13815;52.374;4.882;2023-01-08T11:09:48;6.70;;;0.85;;
26038;SDS011;13815;52.374;4.882;2023-01-08T11:12:25;10.45;;;1.23;;
26038;SDS011;13815;52.374;4.882;2023-01-08T11:14:55;7.55;;;1.10;;
26038;SDS011;13815;52.374;4.882;2023-01-08T11:17:23;1.00;;;0.38;;
26038;SDS011;13815;52.374;4.882;2023-01-08T11:19:49;1.75;;;0.52;;
26038;SDS011;13815;52.374;4.882;2023-01-08T11:22:19;7.47;;;0.90;;
26038;SDS011;13815;52.374;4.882;2023-01-08T11:24:46;15.57;;;1.17;;
26038;SDS011;13815;52.374;4.882;2023-01-08T11:30:03;9.90;;;1.05;;
26038;SDS011;13815;52.374;4.882;2023-01-08T11:35:12;13.68;;;1.60;;
26038;SDS011;13815;52.374;4.882;2023-01-08T11:37:49;9.65;;;1.80;;
26038;SDS011;13815;52.374;4.882;2023-01-08T11:40:16;12.30;;;1.23;;
26038;SDS011;13815;52.374;4.882;2023-01-08T11:48:32;3.35;;;1.27;;
26038;SDS011;13815;52.374;4.882;2023-01-08T11:53:45;2.08;;;0.73;;
26038;SDS011;13815;52.374;4.882;2023-01-08T12:04:22;8.63;;;1.40;;
26038;SDS011;13815;52.374;4.882;2023-01-08T12:07:12;9.70;;;1.30;;
26038;SDS011;13815;52.374;4.882;2023-01-08T12:09:49;6.13;;;0.52;;
26038;SDS011;13815;52.374;4.882;2023-01-08T12:18:22;7.85;;;1.65;;
26038;SDS011;13815;52.374;4.882;2023-01-08T12:23:55;20.42;;;2.85;;
26038;SDS011;13815;52.374;4.882;2023-01-08T12:26:23;7.65;;;1.42;;
26038;SDS011;13815;52.374;4.882;2023-01-08T12:34:36;5.05;;;2.08;;
26038;SDS011;13815;52.374;4.882;2023-01-08T12:37:08;8.48;;;1.23;;
26038;SDS011;13815;52.374;4.882;2023-01-08T12:39:44;2.03;;;1.08;;
26038;SDS011;13815;52.374;4.882;2023-01-08T12:42:14;4.03;;;0.90;;
26038;SDS011;13815;52.374;4.882;2023-01-08T12:44:42;10.32;;;2.63;;
26038;SDS011;13815;52.374;4.882;2023-01-08T12:47:12;7.45;;;1.30;;
26038;SDS011;13815;52.374;4.882;2023-01-08T12:49:44;13.82;;;2.05;;
26038;SDS011;13815;52.374;4.882;2023-01-08T12:52:21;2.65;;;1.38;;
26038;SDS011;13815;52.374;4.882;2023-01-08T12:54:53;15.00;;;2.17;;
26038;SDS011;13815;52.374;4.882;2023-01-08T12:57:24;5.70;;;2.20;;
26038;SDS011;13815;52.374;4.882;2023-01-08T13:03:13;14.73;;;2.40;;
26038;SDS011;13815;52.374;4.882;2023-01-08T13:05:48;18.52;;;2.60;;
26038;SDS011;13815;52.374;4.882;2023-01-08T13:08:33;1.50;;;1.08;;
26038;SDS011;13815;52.374;4.882;2023-01-08T13:11:00;8.07;;;1.85;;
26038;SDS011;13815;52.374;4.882;2023-01-08T13:13:30;13.93;;;2.03;;
26038;SDS011;13815;52.374;4.882;2023-01-08T13:18:49;12.90;;;1.92;;
26038;SDS011;13815;52.374;4.882;2023-01-08T13:23:41;1.57;;;1.13;;
26038;SDS011;13815;52.374;4.882;2023-01-08T13:26:06;2.22;;;1.42;;
26038;SDS011;13815;52.374;4.882;2023-01-08T13:33:44;7.00;;;1.35;;
26038;SDS011;13815;52.374;4.882;2023-01-08T13:38:37;2.28;;;1.55;;
26038;SDS011;13815;52.374;4.882;2023-01-08T13:41:03;8.10;;;1.65;;
26038;SDS011;13815;52.374;4.882;2023-01-08T13:43:29;20.50;;;3.13;;
26038;SDS011;13815;52.374;4.882;2023-01-08T13:48:24;8.13;;;1.92;;
26038;SDS011;13815;52.374;4.882;2023-01-08T13:50:51;8.20;;;1.85;;
26038;SDS011;13815;52.374;4.882;2023-01-08T13:53:16;1.92;;;1.35;;
26038;SDS011;13815;52.374;4.882;2023-01-08T13:55:47;2.92;;;2.03;;
26038;SDS011;13815;52.374;4.882;2023-01-08T13:58:25;10.18;;;3.15;;
26038;SDS011;13815;52.374;4.882;2023-01-08T14:00:53;4.32;;;2.33;;
26038;SDS011;13815;52.374;4.882;2023-01-08T14:03:33;8.55;;;2.63;;
26038;SDS011;13815;52.374;4.882;2023-01-08T14:06:17;7.68;;;2.28;;
26038;SDS011;13815;52.374;4.882;2023-01-08T14:08:52;2.22;;;1.60;;
26038;SDS011;13815;52.374;4.882;2023-01-08T14:11:18;4.00;;;2.08;;
26038;SDS011;13815;52.374;4.882;2023-01-08T14:13:45;2.20;;;1.42;;
26038;SDS011;13815;52.374;4.882;2023-01-08T14:16:12;7.53;;;2.08;;
26038;SDS011;13815;52.374;4.882;2023-01-08T14:18:39;8.90;;;1.88;;
26038;SDS011;13815;52.374;4.882;2023-01-08T14:21:05;1.98;;;1.48;;
26038;SDS011;13815;52.374;4.882;2023-01-08T14:23:31;6.50;;;1.45;;
26038;SDS011;13815;52.374;4.882;2023-01-08T14:26:01;12.57;;;1.88;;
26038;SDS011;13815;52.374;4.882;2023-01-08T14:28:30;2.60;;;1.48;;
26038;SDS011;13815;52.374;4.882;2023-01-08T14:30:55;4.28;;;2.05;;
26038;SDS011;13815;52.374;4.882;2023-01-08T14:33:22;8.60;;;2.22;;
26038;SDS011;13815;52.374;4.882;2023-01-08T14:35:50;11.23;;;2.67;;
26038;SDS011;13815;52.374;4.882;2023-01-08T14:38:16;14.00;;;2.05;;
26038;SDS011;13815;52.374;4.882;2023-01-08T14:40:47;2.50;;;1.48;;
26038;SDS011;13815;52.374;4.882;2023-01-08T14:43:15;6.60;;;1.30;;
26038;SDS011;13815;52.374;4.882;2023-01-08T14:45:50;13.43;;;2.42;;
26038;SDS011;13815;52.374;4.882;2023-01-08T14:48:24;4.95;;;1.17;;
26038;SDS011;13815;52.374;4.882;2023-01-08T14:50:55;1.95;;;1.25;;
26038;SDS011;13815;52.374;4.882;2023-01-08T14:53:30;5.35;;;1.67;;
26038;SDS011;13815;52.374;4.882;2023-01-08T14:55:57;9.17;;;2.23;;
26038;SDS011;13815;52.374;4.882;2023-01-08T14:58:25;2.90;;;1.70;;
26038;SDS011;13815;52.374;4.882;2023-01-08T15:00:53;10.88;;;3.08;;
26038;SDS011;13815;52.374;4.882;2023-01-08T15:06:03;3.40;;;1.75;;
26038;SDS011;13815;52.374;4.882;2023-01-08T15:08:33;8.48;;;1.73;;
26038;SDS011;13815;52.374;4.882;2023-01-08T15:11:12;5.32;;;2.13;;
26038;SDS011;13815;52.374;4.882;2023-01-08T15:13:50;1.08;;;0.82;;
26038;SDS011;13815;52.374;4.882;2023-01-08T15:16:27;1.30;;;0.90;;
26038;SDS011;13815;52.374;4.882;2023-01-08T15:21:28;2.80;;;1.20;;
26038;SDS011;13815;52.374;4.882;2023-01-08T15:23:54;13.15;;;2.08;;
26038;SDS011;13815;52.374;4.882;2023-01-08T15:26:21;2.75;;;1.90;;
26038;SDS011;13815;52.374;4.882;2023-01-08T15:28:51;12.13;;;2.10;;
26038;SDS011;13815;52.374;4.882;2023-01-08T15:31:24;6.15;;;1.35;;
26038;SDS011;13815;52.374;4.882;2023-01-08T15:33:57;6.07;;;1.38;;
26038;SDS011;13815;52.374;4.882;2023-01-08T15:36:22;8.02;;;2.08;;
26038;SDS011;13815;52.374;4.882;2023-01-08T15:38:48;5.15;;;2.47;;
26038;SDS011;13815;52.374;4.882;2023-01-08T15:41:18;7.68;;;1.63;;
26038;SDS011;13815;52.374;4.882;2023-01-08T15:44:04;3.72;;;1.13;;
26038;SDS011;13815;52.374;4.882;2023-01-08T15:46:30;5.85;;;1.58;;
26038;SDS011;13815;52.374;4.882;2023-01-08T15:48:55;1.23;;;1.05;;
26038;SDS011;13815;52.374;4.882;2023-01-08T15:51:21;1.70;;;1.23;;
26038;SDS011;13815;52.374;4.882;2023-01-08T15:53:47;1.63;;;1.15;;
26038;SDS011;13815;52.374;4.882;2023-01-08T15:56:12;1.52;;;1.05;;
26038;SDS011;13815;52.374;4.882;2023-01-08T15:58:38;8.43;;;1.73;;
26038;SDS011;13815;52.374;4.882;2023-01-08T16:01:03;3.65;;;1.88;;
26038;SDS011;13815;52.374;4.882;2023-01-08T16:03:29;0.82;;;0.68;;
26038;SDS011;13815;52.374;4.882;2023-01-08T16:05:54;9.50;;;2.00;;
26038;SDS011;13815;52.374;4.882;2023-01-08T16:08:20;1.83;;;1.02;;
26038;SDS011;13815;52.374;4.882;2023-01-08T16:10:50;8.07;;;2.05;;
26038;SDS011;13815;52.374;4.882;2023-01-08T16:13:16;7.57;;;1.05;;
26038;SDS011;13815;52.374;4.882;2023-01-08T16:15:41;13.65;;;1.52;;